Level: Generation 2 Easy 8
Medal times: 8.844 author, 9.700 gold, 10.600 silver (finish the level to receive the bronze medal).
2 laps. Author lap times: 4.600, 4.244
Global leaderboard:country
|| online
|| | time date time player #rank lap times
PL N 9.379s 2024-11-27 14:57 jjsudjd7uge7h #6001 4.633,4.746
SK N 9.379s 2024-12-10 17:39 Is_Dani #6002 4.800,4.579
GB N 9.380s 2023-02-13 13:09 Guest5327 #6003 4.700,4.680
US Y 9.380s 2023-03-04 06:13 Me #6004 4.750,4.630
RO N 9.380s 2023-03-04 16:36 Lexbi #6005 4.800,4.580
US N 9.380s 2023-03-24 04:37 i like men 69 #6006 4.783,4.597
AU N 9.380s 2023-04-09 05:27 Guest8140 #6007 4.733,4.647
ZA N 9.380s 2024-10-24 04:44 Skibidi Sigma 67 #6008 4.950,4.430
ES Y 9.380s 2026-03-07 18:52 chowmeinn21 #6009 4.816,4.564
US N 9.381s 2023-02-05 20:10 Grambot_r #6010 4.883,4.498
IL Y 9.393s 2023-02-15 08:25 Guest1146 #6011 4.750,4.643
AU N 9.393s 2023-02-18 02:26 Manboy #6012 4.833,4.560
LT N 9.393s 2023-04-17 09:57 zimba #6013 4.766,4.627
GB N 9.394s 2023-02-05 20:28 rorytheracingca #6014 4.800,4.594
CA N 9.394s 2023-02-06 00:15 Apple #6015 4.500,4.894
GB N 9.394s 2023-02-10 19:51 Jay #6016 4.716,4.678
EE N 9.394s 2023-02-20 15:48 AmberFate7 #6017 4.683,4.711
CA N 9.394s 2023-02-25 03:32 Mayz #6018 4.800,4.594
CA N 9.394s 2023-03-01 13:47 BeeEquine #6019 5.083,4.311
CA Y 9.394s 2023-03-12 01:15 Guest8916 #6020 4.866,4.528
US N 9.394s 2023-03-14 16:14 Guest2145 #6021 4.733,4.661
NL Y 9.394s 2023-03-16 22:22 Louiekaas469 #6022 4.766,4.628
CA Y 9.394s 2023-04-05 18:03 yyc.Jay #6023 4.766,4.628
GB N 9.394s 2023-04-22 12:43 To ez #6024 4.750,4.644
CZ Y 9.394s 2023-04-25 09:33 stepkys #6025 4.866,4.528
SK Y 9.394s 2023-04-28 06:24 Robotr0n #6026 5.050,4.344
IL N 9.394s 2024-11-19 12:50 malachitr7 #6027 4.650,4.744
NL N 9.394s 2025-12-31 17:51 KaideKai #6028 4.783,4.611
RU N 9.394s 2026-02-01 21:23 whoisevsey #6029 4.716,4.678
FR N 9.394s 2026-04-12 08:30 JWJ #6030 4.833,4.561
RU N 9.394s 2026-04-28 14:36 Nik_ #6031 4.733,4.661
FR N 9.395s 2023-02-05 09:50 Al D Lan #6032 4.766,4.629
NL N 9.395s 2023-02-09 14:02 Shxrp #6033 4.766,4.629
NP N 9.395s 2023-02-13 10:17 Pexnixz #6034 4.866,4.529
PL N 9.395s 2023-02-13 15:43 adi8010 #6035 4.850,4.545
NL N 9.395s 2023-02-16 07:01 kylianlol13 #6036 4.850,4.545
SE N 9.395s 2023-02-16 12:05 Minidragon0610 #6037 4.650,4.745
ID Y 9.395s 2023-02-19 10:35 Mysitic07 #6038 4.750,4.645
PL N 9.395s 2023-02-19 15:55 luki #6039 4.616,4.779
PL N 9.395s 2023-02-21 10:14 games of #6040 4.733,4.662
JO Y 9.395s 2023-02-21 19:13 lazycazy #6041 4.766,4.629
MK Y 9.395s 2023-02-23 13:06 Acookiegoddess #6042 4.683,4.712
TT Y 9.395s 2023-02-24 12:09 ImJvstAri #6043 4.650,4.745
PL Y 9.395s 2023-03-04 13:35 Watermelon #6044 4.800,4.595
SE N 9.395s 2023-03-08 06:53 Jack #6045 4.700,4.695
LT N 9.395s 2023-03-09 07:33 Massu #6046 4.666,4.729
FR N 9.395s 2023-04-30 17:25 Luvmangaka #6047 4.866,4.529
TT N 9.395s 2024-05-29 11:24 ridzx_exo #6048 4.633,4.762
RU N 9.395s 2024-06-07 05:25 Granada1514 #6049 4.850,4.545
NL N 9.395s 2024-08-14 10:28 YoupTheNoob #6050 4.633,4.762
IT N 9.395s 2024-09-21 16:35 ZEFRAM #6051 5.000,4.395
RU N 9.395s 2024-12-22 12:02 маяковский916 #6052 4.833,4.562
FR Y 9.395s 2026-02-21 10:33 Zertyazertyu #6053 4.833,4.562
US N 9.396s 2023-02-18 03:23 Unknown #6054 4.900,4.496
FR N 9.396s 2023-03-01 21:13 Kapichu64 #6055 5.116,4.280
NZ Y 9.396s 2023-03-12 07:31 TorpidBoxer1178 #6056 4.900,4.496
US N 9.396s 2023-03-25 14:56 Guest3798 #6057 4.833,4.563
BE N 9.396s 2023-04-15 11:50 Finn #6058 4.733,4.663
NL N 9.397s 2023-02-05 20:34 Durzee #6059 4.850,4.547
SE N 9.397s 2023-02-14 07:08 Thirteen #6060 4.850,4.547
GB Y 9.397s 2023-02-17 22:20 Alfie #6061 4.800,4.597
US Y 9.397s 2023-03-20 13:23 PinkApple #6062 4.800,4.597
AU Y 9.397s 2023-04-01 05:43 StephCurryYoAss #6063 4.650,4.747
US Y 9.397s 2023-04-10 23:34 Hurgurph #6064 4.700,4.697
US Y 9.397s 2023-04-19 01:26 nameless #6065 4.766,4.631
GB N 9.397s 2023-06-13 17:31 Axel9967 #6066 4.916,4.481
EC N 9.397s 2026-04-20 07:07 Fabian #6067 4.983,4.414
IL Y 9.410s 2023-02-19 05:29 RoiPvp #6068 4.766,4.644
RS N 9.410s 2023-04-20 14:03 Zdral #6069 4.766,4.644
US N 9.410s 2026-01-05 00:55 Azarzar144 #6070 4.950,4.460
PL N 9.411s 2023-02-11 14:14 JuzekMenel #6071 4.800,4.611
RO Y 9.411s 2023-02-18 08:13 Bodo #6072 4.783,4.628
US Y 9.411s 2023-02-21 00:28 Guest5511 #6073 4.750,4.661
FR N 9.411s 2023-03-28 20:19 ELaziox2 #6074 4.733,4.678
US Y 9.411s 2023-04-01 03:58 pinktulipp #6075 4.966,4.445
CZ Y 9.411s 2023-04-17 19:48 sasa #6076 4.633,4.778
US N 9.411s 2024-08-26 16:01 Mryellow #6077 4.900,4.511
CH N 9.412s 2023-02-06 06:40 kingmeg04 #6078 4.933,4.479
PL N 9.412s 2023-02-06 11:42 ok #6079 4.666,4.746
NL N 9.412s 2023-02-06 13:18 TWIX24XD2 #6080 4.833,4.579
SE N 9.412s 2023-02-14 08:45 8cookiemonster1 #6081 4.750,4.662
FI N 9.412s 2023-02-15 19:36 CasperBest #6082 4.883,4.529
US N 9.412s 2023-02-17 00:17 Triforce #6083 4.883,4.529
US Y 9.412s 2023-02-17 01:37 FruityPebble #6084 4.816,4.596
IE N 9.412s 2023-02-17 20:54 ExoFxcus #6085 4.633,4.779
US N 9.412s 2023-02-20 01:43 lil_clix54 #6086 4.616,4.796
SE N 9.412s 2023-02-21 18:35 Monkey_choppa #6087 4.850,4.562
DK N 9.412s 2023-03-03 18:19 Jannick27 #6088 4.783,4.629
AT Y 9.412s 2023-03-06 07:16 DerSchappi #6089 4.700,4.712
ES N 9.412s 2023-03-09 10:22 Gerard #6090 4.750,4.662
US Y 9.412s 2023-03-27 22:36 Taco #6091 4.566,4.846
DE Y 9.412s 2023-04-07 22:10 BigZhdun #6092 4.750,4.662
RO N 9.412s 2023-04-15 19:13 Vetto #6093 4.650,4.762
DK N 9.412s 2023-04-26 05:54 Guest7800 #6094 4.650,4.762
FR N 9.412s 2023-07-11 22:57 ZippyHarvester6 #6095 4.733,4.679
US N 9.412s 2024-04-15 16:03 cattmare #6096 4.850,4.562
CA Y 9.412s 2024-10-17 15:34 philippe #6097 4.750,4.662
GB N 9.412s 2024-11-22 21:54 TheAlfMonster12 #6098 4.833,4.579
GB N 9.412s 2025-01-17 17:07 xplodingeggo #6099 4.750,4.662
RS N 9.413s 2023-02-05 17:46 danilo brzina #6100 4.716,4.697
SE N 9.413s 2023-02-14 11:46 SparKzz #6101 4.700,4.713
US Y 9.413s 2023-02-18 08:14 Guest4599 #6102 4.816,4.597
SE N 9.413s 2023-02-22 16:40 Snowy #6103 4.716,4.697
CH N 9.413s 2025-02-17 02:31 Justice #6104 4.850,4.563
LV N 9.413s 2025-05-18 14:04 Laaceens #6105 4.816,4.597
FR Y 9.413s 2026-03-11 01:39 Tetra #6106 4.816,4.597
US N 9.427s 2023-02-07 02:50 ZadokGamingTK #6107 4.850,4.577
DK N 9.427s 2023-02-07 15:01 Zyxel #6108 4.650,4.777
NL N 9.427s 2023-02-12 20:38 SpeedyRattle27 #6109 4.933,4.494
US N 9.427s 2023-02-15 22:58 𝐯𝐞𝐥𝐨𝐧𝐞 #6110 4.816,4.611
HU Y 9.427s 2023-02-20 17:30 Panni #6111 4.983,4.444
IL N 9.427s 2023-02-22 13:43 sea rabbit1 #6112 4.833,4.594
BA N 9.427s 2023-02-26 21:45 Noob #6113 4.883,4.544
NL N 9.427s 2023-03-04 14:23 Bot #6114 4.783,4.644
DE Y 9.427s 2023-03-05 14:53 LittleSteflex47 #6115 4.783,4.644
NZ Y 9.427s 2023-03-20 09:50 Sp00ky'exo #6116 4.600,4.827
US N 9.427s 2023-04-13 04:24 Sword #6117 4.733,4.694
GB Y 9.427s 2023-04-15 08:38 SecondIon112 #6118 4.700,4.727
DE N 9.427s 2023-04-15 11:52 Undertaker #6119 4.633,4.794
US N 9.427s 2023-06-04 02:30 YVNGXBP420 #6120 4.783,4.644
CA Y 9.427s 2024-10-17 15:34 Gandhi2.0 #6121 4.816,4.611
BR N 9.427s 2024-10-23 13:11 te3414 #6122 4.666,4.761
ES N 9.427s 2025-01-28 12:36 MaaPer #6123 4.783,4.644
GR N 9.427s 2025-04-03 08:53 Aek4ever #6124 4.900,4.527
SE N 9.428s 2023-02-23 19:04 uWannabeMf #6125 4.850,4.578
NL N 9.428s 2023-03-01 21:24 Jillieboy #6126 4.866,4.562
PL N 9.428s 2023-04-02 12:09 keraj0 #6127 4.883,4.545
US N 9.429s 2023-02-08 14:26 Me #6128 4.766,4.663
GB N 9.429s 2023-02-09 16:52 xXSnappySharkXx #6129 4.783,4.646
GB N 9.429s 2023-02-12 17:07 __ #6130 4.766,4.663
FI N 9.429s 2023-02-13 13:36 evasmurrikak #6131 4.800,4.629
CA N 9.429s 2023-02-14 00:04 cdr0x #6132 4.800,4.629
HR N 9.429s 2023-02-14 11:44 kurac #6133 4.750,4.679
DK N 9.429s 2023-02-14 12:15 Exonoob123 #6134 4.766,4.663
BG N 9.429s 2023-02-16 15:58 Negreb #6135 4.783,4.646
NL Y 9.429s 2023-02-18 11:41 void #6136 4.816,4.613
US N 9.429s 2023-02-19 01:52 cole #6137 4.750,4.679
US Y 9.429s 2023-02-20 14:41 TheFuzz08 #6138 4.850,4.579
DE N 9.429s 2023-02-20 14:56 Slizzy #6139 4.616,4.813
NL N 9.429s 2023-02-22 20:18 Erwok #6140 4.766,4.663
US N 9.429s 2023-03-02 19:55 Maniac8B #6141 4.683,4.746
NL N 9.429s 2023-03-08 06:10 sv1Timo #6142 4.766,4.663
IL N 9.429s 2023-03-10 15:13 gamerbruh #6143 4.766,4.663
DE N 9.429s 2023-03-15 19:06 Helloooogh #6144 4.716,4.713
PL Y 9.429s 2023-03-20 20:00 Niejanq010 #6145 4.683,4.746
US N 9.429s 2023-03-21 19:05 Guest3478 #6146 4.666,4.763
SI Y 9.429s 2023-04-09 05:09 _MR_nace #6147 4.866,4.563
US Y 9.429s 2023-04-09 22:40 emme18455 #6148 4.883,4.546
FR N 9.429s 2023-05-02 00:06 J-TO #6149 4.700,4.729
NO N 9.429s 2023-05-22 16:40 Exo_StarRacer #6150 4.633,4.796
GR N 9.429s 2023-09-03 13:14 Manzy #6151 4.783,4.646
GE N 9.429s 2023-09-07 16:34 Monky D Luffy #6152 4.633,4.796
NL N 9.429s 2024-08-13 21:54 ᅠᅠᅠ #6153 5.166,4.263
US N 9.429s 2025-03-01 01:50 TalkingMime #6154 4.750,4.679
DE N 9.429s 2025-05-18 19:03 Flexr #6155 4.766,4.663
FR N 9.429s 2025-12-14 02:06 Hackaire #6156 4.866,4.563
CA N 9.429s 2026-04-20 22:03 astro #6157 4.750,4.679
PL N 9.430s 2023-02-05 15:51 PopGorN #6158 5.100,4.330
AT N 9.430s 2023-02-08 11:55 VoidWaster #6159 4.700,4.730
NL N 9.430s 2023-02-13 20:28 bluppie99 #6160 4.800,4.630
FI N 9.430s 2023-02-22 06:22 Just better #6161 4.850,4.580
BE Y 9.430s 2023-03-04 20:20 Ovi0312 #6162 4.783,4.647
SE N 9.430s 2023-03-23 07:58 skinser161 #6163 5.033,4.397
DE N 9.430s 2023-04-09 16:50 Wonder #6164 4.816,4.614
US N 9.430s 2024-07-08 20:57 1LITTLELIAM #6165 4.683,4.747
FR N 9.430s 2024-09-16 13:23 yatsuu #6166 5.133,4.297
CA N 9.430s 2024-12-09 05:19 Gogo #6167 4.750,4.680
GB N 9.430s 2025-08-27 22:10 Zinc #6168 4.833,4.597
FR N 9.430s 2026-05-04 13:03 Armin's #6169 4.650,4.780
US N 9.444s 2023-02-05 15:00 goshalpi #6170 4.750,4.694
GB Y 9.444s 2023-02-13 19:26 MonkeyPC #6171 4.833,4.611
US N 9.444s 2023-02-19 13:36 LiamM #6172 4.833,4.611
SE N 9.444s 2023-03-03 14:04 LarooZ1 #6173 4.766,4.678
US N 9.444s 2023-03-07 17:06 Exorace #6174 4.850,4.594
SE N 9.444s 2023-03-11 20:04 Guest8280 #6175 4.783,4.661
FR N 9.444s 2023-04-10 10:36 kev95 #6176 4.800,4.644
AU N 9.444s 2023-04-14 23:19 Big dong #6177 4.666,4.778
ES N 9.444s 2023-04-23 15:49 CrunchyPerspect #6178 4.800,4.644
AU N 9.444s 2023-06-02 19:25 sol #6179 4.800,4.644
GB N 9.444s 2026-04-05 15:46 𝐫𝐮𝐛𝐢𝐱 🪐 #6180 4.616,4.828
US N 9.445s 2023-02-06 02:52 Skelly #6181 4.766,4.679
IL N 9.445s 2023-02-06 17:31 HootingSofa14 #6182 4.816,4.629
NL N 9.445s 2023-02-07 15:01 ParkourPro #6183 4.716,4.729
CA N 9.445s 2023-02-09 03:34 Mister GOD #6184 4.850,4.595
RS Y 9.445s 2023-02-14 14:14 FreeTopG #6185 4.916,4.529
RO N 9.445s 2023-02-14 20:12 tyuioperwqda #6186 4.783,4.662
AU N 9.445s 2023-02-16 12:13 Kain #6187 4.900,4.545
BE N 9.445s 2023-02-18 20:46 eleven #6188 4.866,4.579
BE N 9.445s 2023-02-19 06:07 HumanitarianMot #6189 4.883,4.562
US N 9.445s 2023-02-19 18:36 JoJo #6190 4.683,4.762
GR Y 9.445s 2023-02-20 18:32 CrazyJim28 #6191 4.816,4.629
US Y 9.445s 2023-02-24 03:40 Mario #6192 4.683,4.762
FI N 9.445s 2023-02-28 08:34 Mambo #6193 4.783,4.662
GB N 9.445s 2023-03-05 15:08 FriendlyPlant #6194 4.650,4.795
IL N 9.445s 2023-03-07 17:32 Elcome #6195 4.616,4.829
BE N 9.445s 2023-03-11 20:54 E_pacar #6196 4.766,4.679
AU N 9.445s 2023-03-12 05:29 lilspence #6197 4.800,4.645
US Y 9.445s 2023-03-12 17:20 t1tanic #6198 4.766,4.679
HU N 9.445s 2023-03-18 20:27 -Nova- #6199 4.600,4.845
CH N 9.445s 2023-03-20 14:19 Nachtarafann #6200 4.800,4.645
RO N 9.445s 2023-03-26 06:22 sx_ghostie #6201 4.850,4.595
AU Y 9.445s 2023-04-06 05:04 Choco #6202 4.700,4.745
NL N 9.445s 2023-04-09 17:01 Wolfe3600 #6203 4.666,4.779
SE N 9.445s 2023-04-26 09:39 fps45k #6204 4.750,4.695
BE N 9.445s 2023-05-30 13:07 Matiasvdh #6205 4.700,4.745
IN N 9.445s 2023-09-03 07:44 Vexx #6206 4.900,4.545
PL N 9.445s 2023-12-27 14:41 iwopor #6207 4.966,4.479
LU N 9.445s 2024-11-03 12:55 Meow :3 #6208 4.750,4.695
BE N 9.445s 2024-12-17 20:08 bananaman #6209 4.816,4.629
KR Y 9.445s 2026-01-26 03:24 철학 #6210 4.933,4.512
US N 9.445s 2026-04-11 12:40 Etnkm12129 #6211 4.766,4.679
GB Y 9.446s 2023-02-22 17:47 bimbo #6212 4.800,4.646
US N 9.446s 2023-02-26 05:08 xmcew #6213 4.783,4.663
US N 9.446s 2023-03-20 05:06 Natedog21 #6214 4.783,4.663
US Y 9.446s 2023-04-15 20:39 JDMI20022 #6215 4.666,4.780
CH N 9.446s 2023-04-30 08:21 Mattstar #6216 4.950,4.496
FR N 9.446s 2026-03-26 22:01 ColChope #6217 4.833,4.613
US N 9.447s 2023-02-13 23:50 Guest5703 #6218 4.700,4.747
US N 9.447s 2023-02-19 20:46 skibidislayer #6219 5.033,4.414
FR N 9.447s 2023-10-28 12:32 nyls #6220 4.650,4.797
IE N 9.447s 2023-11-01 12:52 paudi3 #6221 4.800,4.647
US N 9.447s 2024-08-22 23:49 stx1717 #6222 4.733,4.714
CH N 9.447s 2026-03-03 15:58 FoxyShiny #6223 4.866,4.581
FR N 9.447s 2026-04-20 23:32 sweetplane #6224 4.866,4.581
GR N 9.460s 2023-02-05 17:46 TheYeetFiend #6225 4.766,4.694
DK N 9.460s 2023-02-06 14:28 TheBoredomGamer #6226 4.716,4.744
US Y 9.460s 2023-02-12 22:03 bbbattt #6227 4.733,4.727
US Y 9.460s 2023-02-17 22:54 Broo #6228 4.733,4.727
IT N 9.460s 2023-02-25 17:18 DieTV #6229 4.850,4.610
NL N 9.460s 2023-03-26 20:20 daanFusion11 #6230 4.700,4.760
GB Y 9.460s 2023-04-14 12:34 CrystalMaster #6231 4.783,4.677
US N 9.460s 2023-04-23 22:48 Faze 0bama #6232 4.850,4.610
SE N 9.460s 2025-02-21 15:33 Kurt #6233 4.816,4.644
GB N 9.461s 2023-02-13 17:57 Guest5864 #6234 4.683,4.778
BG N 9.461s 2023-02-15 20:06 UnrighteousAura #6235 4.700,4.761
NO N 9.461s 2023-02-16 18:26 Guest8719 #6236 4.800,4.661
GB N 9.461s 2023-02-21 10:01 Vortex #6237 4.916,4.545
PL N 9.461s 2023-03-07 11:55 MskaopG #6238 4.833,4.628
IL Y 9.461s 2023-03-20 19:10 yehontanz17 #6239 4.766,4.695
US Y 9.461s 2023-03-31 02:08 Guest3037 #6240 4.700,4.761
LT N 9.461s 2023-04-03 09:37 saopin #6241 4.800,4.661
US Y 9.461s 2023-05-05 02:24 Guest4955 #6242 4.783,4.678
US N 9.461s 2023-09-04 19:14 Guest5317 #6243 4.916,4.545
NL N 9.461s 2023-09-24 09:05 Mickyy #6244 4.700,4.761
RU N 9.461s 2024-04-07 16:12 KORMAN #6245 4.816,4.645
EE N 9.462s 2023-02-05 18:36 serwenk1 #6246 4.800,4.662
NL N 9.462s 2023-02-07 07:54 Pessi #6247 4.750,4.712
US N 9.462s 2023-02-12 18:41 Eight #6248 4.783,4.679
IL N 9.462s 2023-02-15 08:00 -_-Lidor-_- #6249 4.783,4.679
CA N 9.462s 2023-02-15 15:26 CrimsonCanadian #6250 4.733,4.729
GB Y 9.462s 2023-02-16 00:14 big balls #6251 4.766,4.696
DK N 9.462s 2023-02-17 16:18 Kineser #6252 4.733,4.729
NL Y 9.462s 2023-02-21 14:48 itskode3 #6253 4.916,4.546
AE N 9.462s 2023-02-23 16:56 Damn #6254 4.700,4.762
FR N 9.462s 2023-02-25 11:37 Peyomas93 #6255 4.833,4.629
US N 9.462s 2023-03-01 17:44 Guest7634 #6256 4.783,4.679
FR Y 9.462s 2023-03-05 21:16 NonplussedSloth #6257 4.950,4.512
AR N 9.462s 2023-03-06 10:48 Lionel Messi #6258 4.816,4.646
US Y 9.462s 2023-03-08 20:30 Exoracer beast #6259 4.700,4.762
CA N 9.462s 2023-03-10 13:13 IlyTiny #6260 4.666,4.796
US Y 9.462s 2023-04-01 01:30 Guest3462 #6261 4.850,4.612
US N 9.462s 2023-04-02 20:43 VintageMattress #6262 4.616,4.846
CA N 9.462s 2023-04-04 19:54 Obama #6263 4.783,4.679
RO Y 9.462s 2023-04-05 11:05 FreezingRenegad #6264 4.900,4.562
DE Y 9.462s 2023-04-14 10:45 Guest5670 #6265 4.866,4.596
GB N 9.462s 2023-04-27 07:15 TheOPgamer #6266 4.900,4.562
PH N 9.462s 2023-04-27 20:04 xAntisune #6267 4.683,4.779
AU N 9.462s 2023-08-12 02:31 solaris #6268 4.716,4.746
PL N 9.462s 2023-09-16 12:35 deleted user #6269 4.866,4.596
US N 9.462s 2024-03-31 01:49 Daniel #6270 4.833,4.629
PT N 9.462s 2025-04-22 15:49 Paranoydude #6271 4.883,4.579
DE N 9.462s 2026-02-21 22:38 Sasori #6272 4.866,4.596
DK N 9.463s 2023-02-06 14:29 Haugefar k #6273 4.716,4.747
NL N 9.463s 2023-04-26 15:51 Quintninja5 #6274 4.883,4.580
US N 9.463s 2024-08-16 21:21 macaw #6275 4.816,4.647
CZ N 9.463s 2024-11-22 13:59 Omgjelen #6276 4.783,4.680
GB N 9.463s 2025-02-02 18:57 FluidConjecture #6277 4.866,4.597
US N 9.464s 2023-04-23 02:30 Mynamejeff #6278 4.800,4.664
IT Y 9.464s 2025-12-23 23:03 Zarckadd #6279 4.916,4.548
BE N 9.477s 2023-02-05 15:34 Guest2156 #6280 4.916,4.561
US N 9.477s 2023-02-07 00:11 HDplaysV3 #6281 4.800,4.677
NL N 9.477s 2023-02-09 12:10 Nothonbolk #6282 4.833,4.644
US N 9.477s 2023-02-13 00:22 FrogBoy #6283 4.816,4.661
SE Y 9.477s 2023-02-19 15:28 ITZLuke #6284 4.850,4.627
RS N 9.477s 2023-02-23 12:43 Kix016 #6285 4.916,4.561
FR Y 9.477s 2023-03-23 00:35 meed laah #6286 4.916,4.561
NO N 9.477s 2023-04-03 13:23 godparkourzombi #6287 4.783,4.694
SE Y 9.477s 2023-04-06 06:50 Krankenztein #6288 4.766,4.711
CA Y 9.477s 2023-04-26 21:09 PooFlicker72 #6289 4.633,4.844
GB N 9.477s 2024-04-19 09:08 iiVxeno #6290 4.750,4.727
RU Y 9.477s 2025-03-26 20:08 Чай #6291 4.883,4.594
US Y 9.477s 2025-04-11 23:06 Alice #6292 4.766,4.711
IN N 9.477s 2026-04-19 18:25 Vykant #6293 4.733,4.744
SG Y 9.477s 2026-04-25 15:05 HBee8334 #6294 4.716,4.761
US N 9.478s 2023-02-06 03:49 ultracyborg #6295 4.750,4.728
AT N 9.478s 2023-02-06 18:29 thedclime #6296 4.733,4.745
US Y 9.478s 2023-04-17 04:32 DROID #6297 4.783,4.695
SE Y 9.478s 2023-05-02 07:20 ExuberantExteri #6298 4.916,4.562
US N 9.478s 2024-09-07 19:18 ThermalRug3251 #6299 4.866,4.612
IN N 9.478s 2026-02-12 16:53 (ノ◕ヮ◕)ノ*.✧ #6300 4.866,4.612
PL N 9.479s 2023-02-12 20:16 soong9 #6301 4.733,4.746
US Y 9.479s 2023-02-12 20:25 ExoSpicey #6302 4.700,4.779
US Y 9.479s 2023-02-13 12:11 Aspect #6303 4.800,4.679
SI N 9.479s 2023-02-13 12:12 JadeMonkey10205 #6304 4.733,4.746
FI Y 9.479s 2023-02-13 15:47 Karnitus #6305 4.900,4.579
US Y 9.479s 2023-02-13 17:36 Ishowsped #6306 4.800,4.679
PL Y 9.479s 2023-02-13 20:50 AF1HARSKI #6307 4.833,4.646
BE N 9.479s 2023-02-15 06:40 Peermoes #6308 4.766,4.713
BG N 9.479s 2023-02-17 13:42 Guest2356 #6309 4.633,4.846
JP N 9.479s 2023-02-19 19:04 Guest6691 #6310 4.816,4.663
CH N 9.479s 2023-02-22 22:30 Tokum0 #6311 4.800,4.679
FR N 9.479s 2023-03-01 11:22 mitri_tr #6312 4.833,4.646
GR N 9.479s 2023-03-07 19:45 InterruptedHorr #6313 4.916,4.563
SE N 9.479s 2023-03-16 10:31 PL Zaxy #6314 4.766,4.713
NZ Y 9.479s 2023-03-17 09:37 Buffbog #6315 4.833,4.646
ZA Y 9.479s 2023-03-23 09:56 IndubitableNerd #6316 4.816,4.663
US N 9.479s 2023-03-24 09:42 Enz0 #6317 4.850,4.629
NL N 9.479s 2023-03-29 08:29 fire_potato #6318 4.633,4.846
NL N 9.479s 2023-03-31 18:47 Babbajo #6319 4.733,4.746
US N 9.479s 2023-04-11 22:12 Lmao #6320 4.700,4.779
BH N 9.479s 2023-04-22 13:57 x7_ #6321 4.850,4.629
AU N 9.479s 2023-05-31 08:08 Truxq #6322 4.783,4.696
US N 9.479s 2023-07-23 17:32 Jacej7 #6323 4.866,4.613
US N 9.479s 2024-09-03 02:50 Octorock #6324 4.900,4.579
PL N 9.479s 2024-09-19 09:30 kititeo #6325 4.716,4.763
US N 9.479s 2024-09-26 18:17 Flare #6326 4.850,4.629
FI N 9.479s 2024-09-28 15:07 TheBoss45 #6327 4.766,4.713
CA Y 9.479s 2024-10-17 15:33 OptimusVanvan #6328 4.900,4.579
GB N 9.479s 2025-04-26 21:35 chinbeast5530 #6329 4.766,4.713
GB N 9.479s 2025-09-07 16:19 Trentplays619 #6330 4.950,4.529
RU N 9.479s 2026-01-12 11:23 grinner3663 #6331 4.800,4.679
DE N 9.479s 2026-05-03 14:50 Nirgentwer #6332 4.683,4.796
ES N 9.480s 2023-02-05 21:27 you didnt #6333 4.866,4.614
GB N 9.480s 2023-02-06 20:57 Elvines #6334 4.800,4.680
LT N 9.480s 2023-02-11 09:14 kaju_kajuu #6335 4.983,4.497
US N 9.480s 2023-03-08 17:48 MADX #6336 4.750,4.730
CA N 9.480s 2023-09-04 19:02 Shad0wsW1th1n #6337 4.800,4.680
DE N 9.480s 2025-02-21 08:26 Eagel #6338 4.883,4.597
IR N 9.481s 2023-02-19 21:00 Parsagod #6339 5.083,4.398
AU N 9.492s 2023-04-01 04:50 WavyOcean2081 #6340 4.683,4.809
GB N 9.493s 2023-02-12 09:38 LtWillZz #6341 4.833,4.660
CH N 9.493s 2023-02-12 13:42 WONZ #6342 4.983,4.510
HR N 9.493s 2023-02-19 12:07 Pirorer #6343 4.750,4.743
FI N 9.493s 2023-04-04 20:21 mrpopo123 #6344 5.050,4.443
FI N 9.494s 2023-02-13 07:54 Bonepile #6345 4.900,4.594
NL N 9.494s 2023-02-18 15:46 kaaspower #6346 4.833,4.661
US N 9.494s 2023-02-18 17:29 Baconace #6347 4.733,4.761
DE Y 9.494s 2023-02-26 16:52 AncientPig10996 #6348 4.700,4.794
US N 9.494s 2023-03-13 22:44 Chrisywisy #6349 4.716,4.778
IT N 9.494s 2023-03-17 00:11 guestporcoddio #6350 4.850,4.644
US N 9.494s 2023-03-19 15:04 alvatune #6351 4.916,4.578
BE N 9.494s 2023-09-06 05:30 Lucas2008vdb #6352 4.850,4.644
BR N 9.494s 2024-06-16 03:54 gdaleson #6353 4.850,4.644
SE N 9.494s 2024-08-26 11:45 lets GOOOOOOOOO #6354 4.916,4.578
US N 9.494s 2025-04-03 04:15 🌌Stardust Nebula🌌 #6355 4.850,4.644
US N 9.495s 2023-02-06 01:06 Guest7675 #6356 4.800,4.695
FR N 9.495s 2023-02-06 05:59 Aaubin51 #6357 4.733,4.762
US N 9.495s 2023-02-06 15:37 farts #6358 4.833,4.662
US N 9.495s 2023-02-08 15:43 PhantomBionic #6359 4.933,4.562
CZ N 9.495s 2023-02-09 18:25 Fire ninja #6360 4.800,4.695
RO N 9.495s 2023-02-10 11:32 BYDavidu #6361 4.866,4.629
SK Y 9.495s 2023-02-14 13:57 Lony #6362 4.850,4.645
PL N 9.495s 2023-02-15 12:48 dvrkcryy #6363 4.783,4.712
PL N 9.495s 2023-02-15 14:11 makapaka #6364 4.933,4.562
US Y 9.495s 2023-02-15 16:14 Weluvkdott #6365 4.650,4.845
RU Y 9.495s 2023-02-16 06:42 Kopeyka #6366 4.816,4.679
IE N 9.495s 2023-02-16 13:05 Zacofdeis #6367 4.833,4.662
US N 9.495s 2023-02-17 22:14 Raided #6368 4.816,4.679
US N 9.495s 2023-02-20 06:12 bigman2446 #6369 4.966,4.529
LT N 9.495s 2023-02-27 13:32 CLIPED #6370 4.966,4.529
US N 9.495s 2023-03-03 16:58 Ur mother #6371 4.733,4.762
NL N 9.495s 2023-03-04 13:41 koeleboitimo #6372 4.733,4.762
US N 9.495s 2023-03-05 21:13 PKNasty #6373 4.783,4.712
AU N 9.495s 2023-03-07 06:45 InimitableNerd4 #6374 4.616,4.879
PL N 9.495s 2023-03-15 20:08 cookieseq #6375 4.683,4.812
AL N 9.495s 2023-03-18 09:47 OP Roan #6376 4.966,4.529
PL N 9.495s 2023-03-18 11:06 J_an___ek #6377 4.800,4.695
US N 9.495s 2023-03-20 17:32 Guest7952 #6378 4.816,4.679
IE Y 9.495s 2023-04-08 16:07 RapidNinja7 #6379 4.816,4.679
PL Y 9.495s 2023-04-11 14:27 Tusia #6380 4.733,4.762
SE N 9.495s 2023-04-15 11:39 11 #6381 4.916,4.579
FI N 9.495s 2023-04-22 09:30 remppa #6382 4.800,4.695
BR N 9.495s 2023-07-02 16:24 paulidelas #6383 4.666,4.829
US N 9.495s 2023-09-02 12:41 Thewabbit08 #6384 4.916,4.579
FI N 9.495s 2024-07-08 19:35 csingcsong #6385 4.650,4.845
SE Y 9.495s 2024-08-28 10:25 knutte3000 #6386 4.800,4.695
RU N 9.495s 2025-04-03 16:33 Prodazniy #6387 4.883,4.612
DE N 9.495s 2025-06-26 09:47 Huhu #6388 4.800,4.695
NL N 9.495s 2026-04-23 18:28 Pochmornamagia #6389 4.750,4.745
NL N 9.496s 2023-02-10 09:04 vjiggo #6390 4.850,4.646
US Y 9.496s 2023-02-14 12:57 ACESharp #6391 4.883,4.613
LV N 9.496s 2023-02-14 17:22 agiksl8 #6392 5.000,4.496
IS Y 9.496s 2023-02-17 13:39 THE GOAT #6393 5.016,4.480
RS N 9.496s 2023-03-03 11:22 vukthecook #6394 4.950,4.546
RO N 9.496s 2023-03-16 12:13 Guest_8756 #6395 4.866,4.630
CH Y 9.496s 2023-04-08 16:22 Parkplatz #6396 4.866,4.630
IT N 9.496s 2023-08-01 09:20 GrubbyPixie192 #6397 4.633,4.863
US N 9.496s 2023-10-12 16:40 Change_Up #6398 4.916,4.580
JP N 9.496s 2024-02-17 13:11 renren #6399 4.783,4.713
HR N 9.496s 2025-10-04 16:19 Ovakio #6400 5.066,4.430
SE N 9.497s 2023-02-15 08:29 LeeryCadet77938 #6401 4.766,4.731
US N 9.497s 2023-03-04 17:14 ZaZa #6402 4.750,4.747
US N 9.497s 2023-04-01 02:59 HotGoose #6403 4.900,4.597
BR N 9.497s 2023-07-18 23:49 Courageouspedro #6404 4.916,4.581
EE N 9.497s 2026-03-14 13:24 EstonianGuys #6405 4.833,4.664
AU N 9.497s 2026-05-08 07:41 Stadt713 #6406 4.833,4.664
US N 9.510s 2023-02-07 16:57 Finemine #6407 4.950,4.560
NL N 9.510s 2023-02-14 18:26 °*~_KnAmOr_~*° #6408 4.916,4.594
IT N 9.510s 2023-02-18 20:23 principessa #6409 4.800,4.710
EE N 9.510s 2023-03-21 08:48 Aron #6410 4.766,4.744
GB N 9.510s 2023-11-23 13:48 77gameking77 #6411 4.900,4.610
NL N 9.510s 2024-01-20 07:42 KAMIllethee #6412 4.716,4.794
BE N 9.510s 2024-08-26 21:35 SpookSkills123 #6413 4.800,4.710
US N 9.510s 2025-01-15 16:38 Pizza #6414 4.683,4.827
NL N 9.511s 2023-02-05 19:51 Jebollemadre #6415 4.850,4.661
NZ N 9.511s 2023-02-08 22:17 Donga #6416 4.666,4.845
HU N 9.511s 2023-02-14 05:36 D4RKD3V1L69 #6417 4.866,4.645
GR N 9.511s 2023-02-17 08:37 kolonoubo123 #6418 4.750,4.761
IE N 9.511s 2023-02-17 14:34 AdroitRecess37 #6419 4.883,4.628
RO Y 9.511s 2023-02-25 09:24 Guest4885 #6420 4.650,4.861
SE N 9.511s 2023-02-25 16:34 Siramplays #6421 4.783,4.728
US N 9.511s 2023-02-25 17:06 truNub #6422 4.666,4.845
PL Y 9.511s 2023-02-26 10:47 P4BELO #6423 4.983,4.528
NL N 9.511s 2023-03-15 16:27 maxkaasje #6424 4.916,4.595
SK N 9.511s 2023-04-01 20:32 adroz329 #6425 4.900,4.611
DK N 9.511s 2023-04-07 09:43 LateEditor24 #6426 4.783,4.728
ES N 9.511s 2023-04-09 19:02 Sellesog #6427 4.850,4.661
GB N 9.511s 2023-05-22 23:02 logrey #6428 4.716,4.795
US N 9.511s 2024-02-08 11:46 Jambo #6429 4.700,4.811
FR N 9.511s 2026-05-07 13:26 Yohan #6430 4.733,4.778
CA N 9.512s 2023-02-05 02:18 Sikezz #6431 4.766,4.746
LT N 9.512s 2023-02-05 06:27 Guest2571 #6432 4.866,4.646
NL N 9.512s 2023-02-05 16:40 pandokont #6433 4.700,4.812
BA N 9.512s 2023-02-05 19:37 Boki #6434 4.716,4.796
US N 9.512s 2023-02-05 23:04 dino nuggies #6435 4.883,4.629
CA N 9.512s 2023-02-06 03:54 Keke #6436 4.866,4.646
GB N 9.512s 2023-02-06 18:10 MLRTM #6437 5.016,4.496
CZ N 9.512s 2023-02-10 12:29 Donutkiller #6438 4.866,4.646
PL N 9.512s 2023-02-11 08:41 Kola2132 #6439 4.983,4.529
DE N 9.512s 2023-02-12 19:06 Taubentoast #6440 4.966,4.546
GB N 9.512s 2023-02-12 23:57 Pokemonmaster99 #6441 4.833,4.679
US N 9.512s 2023-02-14 01:31 Cjm23 #6442 4.916,4.596
US N 9.512s 2023-02-14 13:08 Tophu #6443 4.800,4.712
US N 9.512s 2023-02-17 05:41 Guest6942 #6444 4.750,4.762
EG N 9.512s 2023-02-17 16:17 Alex-pl #6445 4.783,4.729
AL N 9.512s 2023-02-19 14:27 diname #6446 4.800,4.712
NO N 9.512s 2023-02-23 14:44 Guest6243 #6447 4.883,4.629
DE N 9.512s 2023-02-26 11:54 silking6428 #6448 4.783,4.729
GB N 9.512s 2023-02-26 12:34 Guest1288 #6449 4.816,4.696
CY N 9.512s 2023-02-27 11:12 Sv patatas #6450 4.816,4.696
NL Y 9.512s 2023-03-18 08:01 007 #6451 4.816,4.696
DE N 9.512s 2023-03-27 12:10 Tom #6452 4.816,4.696
IT Y 9.512s 2023-03-31 08:25 Guest6114 #6453 4.966,4.546
JO N 9.512s 2023-04-08 13:06 itz_fariss #6454 4.883,4.629
US N 9.512s 2023-04-20 12:44 gafni #6455 4.766,4.746
IL N 9.512s 2023-04-25 09:05 Duckvery cool #6456 4.716,4.796
GB N 9.512s 2023-07-01 19:22 Guest6200 #6457 4.966,4.546
NL N 9.512s 2024-09-30 08:31 Sam Paardenkooper #6458 4.766,4.746
DE N 9.512s 2025-01-31 21:39 Guest2048 #6459 4.800,4.712
IN N 9.512s 2025-05-07 00:12 kirubes #6460 4.700,4.812
FR N 9.512s 2026-01-22 12:44 salope du bus #6461 4.916,4.596
US N 9.512s 2026-03-19 06:52 aventador #6462 4.800,4.712
KR N 9.512s 2026-03-28 10:49 무너띠 #6463 4.850,4.662
US N 9.512s 2026-04-13 04:27 iAmSky #6464 5.216,4.296
CA N 9.513s 2023-02-07 01:37 Ben #6465 4.866,4.647
NO N 9.513s 2023-02-09 10:15 Kjendis09 #6466 4.800,4.713
SE N 9.513s 2023-02-15 12:37 god #6467 4.933,4.580
NL N 9.513s 2023-02-19 19:27 GuusH #6468 4.900,4.613
FR Y 9.513s 2023-02-20 07:20 volitive17 #6469 4.766,4.747
ES N 9.513s 2023-03-09 04:31 Janaacm #6470 4.866,4.647
AU Y 9.513s 2023-03-12 03:25 LittleBro #6471 4.916,4.597
LT N 9.513s 2023-04-27 11:00 Vituvahe #6472 4.966,4.547
NO N 9.513s 2023-10-15 11:41 slayallday #6473 4.900,4.613
GB N 9.513s 2024-07-09 20:03 Harvey #6474 4.850,4.663
US N 9.513s 2024-08-31 05:13 BronzeDropbear8 #6475 4.783,4.730
CA N 9.513s 2025-02-06 20:51 Shiba #6476 4.800,4.713
IT Y 9.514s 2023-02-14 18:26 TranslucentHotD #6477 4.800,4.714
US N 9.514s 2023-04-06 21:16 Zac00h #6478 4.866,4.648
NL N 9.527s 2023-02-10 09:57 erasaver103 #6479 4.866,4.661
US N 9.527s 2023-02-13 15:36 Bigmonkeyballs #6480 4.583,4.944
GB Y 9.527s 2023-04-12 11:02 Kav #6481 4.866,4.661
NZ N 9.527s 2023-05-01 22:20 WeirdProphet316 #6482 4.783,4.744
CZ N 9.527s 2023-05-05 15:07 Streak less #6483 4.733,4.794
BE N 9.527s 2023-09-04 10:43 racendeballen #6484 5.000,4.527
CH N 9.527s 2024-02-28 13:42 1l23 #6485 4.950,4.577
CA Y 9.527s 2024-10-15 00:30 occona #6486 4.916,4.611
CH N 9.527s 2024-11-28 19:09 Guest3671 #6487 4.783,4.744
GB N 9.528s 2023-02-06 13:27 Guest8596 #6488 4.733,4.795
US Y 9.528s 2023-02-12 16:33 Guest1491 #6489 4.883,4.645
FI N 9.528s 2023-02-12 16:43 Eespurtti #6490 4.783,4.745
US N 9.528s 2023-02-14 19:29 Guest6419 #6491 4.700,4.828
NL N 9.528s 2023-02-17 11:34 svennnb #6492 4.833,4.695
US N 9.528s 2023-04-04 12:54 cherbold #6493 4.950,4.578
NL Y 9.528s 2023-05-04 13:45 Chrystel #6494 4.866,4.662
US N 9.528s 2023-07-23 13:19 Mesxfefz #6495 4.800,4.728
FR N 9.528s 2024-11-08 22:10 Zoltinyti #6496 4.666,4.862
SG N 9.528s 2026-01-02 10:01 ris_berry #6497 4.716,4.812
US N 9.528s 2026-01-19 03:06 Liam #6498 4.866,4.662
AU N 9.529s 2023-02-05 22:23 QuasiBrick13 #6499 5.100,4.429
GR N 9.529s 2023-02-06 13:39 Ur daddy #6500 4.700,4.829
US N 9.529s 2023-02-07 00:38 ilookdumb #6501 4.966,4.563
US N 9.529s 2023-02-07 05:15 YuriTarded #6502 4.850,4.679
CA N 9.529s 2023-02-11 20:11 Mamba824 #6503 4.900,4.629
IN Y 9.529s 2023-02-12 16:43 i want to lose #6504 4.716,4.813
NL N 9.529s 2023-02-12 18:29 pietjepiemel #6505 4.883,4.646
GB N 9.529s 2023-02-14 17:03 Chicken_Nugget #6506 4.850,4.679
DK N 9.529s 2023-02-19 08:19 Dejligpolse #6507 4.816,4.713
AT Y 9.529s 2023-02-19 14:04 dimensio5 #6508 4.800,4.729
GB Y 9.529s 2023-02-20 15:37 Bobbykai28 #6509 4.866,4.663
FI N 9.529s 2023-02-25 19:56 Onsku #6510 4.783,4.746
GB N 9.529s 2023-02-26 16:02 Feddy #6511 4.716,4.813
GB N 9.529s 2023-02-28 17:25 Skin #6512 4.816,4.713
US Y 9.529s 2023-03-04 15:54 sprite #6513 4.850,4.679
US Y 9.529s 2023-03-06 05:25 Jacobee21 #6514 4.833,4.696
NL N 9.529s 2023-03-09 19:18 Egel123 #6515 4.883,4.646
IL N 9.529s 2023-03-10 05:55 leshemking #6516 5.000,4.529
CZ Y 9.529s 2023-03-14 09:55 topGvonrace #6517 4.900,4.629
GB Y 9.529s 2023-03-19 15:07 Exo #6518 4.783,4.746
CH N 9.529s 2023-04-03 15:43 Guest3838 #6519 4.816,4.713
US N 9.529s 2023-04-11 14:59 SaturatedSound9 #6520 4.800,4.729
IL N 9.529s 2023-04-15 10:29 BudgetaryLegacy #6521 4.750,4.779
GB N 9.529s 2023-04-19 07:52 Guest7411 #6522 4.800,4.729
AU N 9.529s 2023-04-25 23:34 Scuxz #6523 4.733,4.796
RO N 9.529s 2023-05-02 13:21 Bogdi38 #6524 4.750,4.779
CA N 9.529s 2023-06-13 02:49 Alexand2663 #6525 4.800,4.729
CA N 9.529s 2023-08-08 14:58 Olapp #6526 4.816,4.713
US N 9.529s 2023-09-07 12:27 Bib ross #6527 4.766,4.763
GB N 9.529s 2023-10-13 20:45 Bighairywilly #6528 4.900,4.629
DE N 9.529s 2023-10-26 13:49 Guest8059 #6529 4.866,4.663
PL N 9.529s 2023-10-30 09:24 BurntConsciousn #6530 4.866,4.663
ZA N 9.529s 2024-09-17 10:46 シŘẹąpęŕシ #6531 4.850,4.679
MK N 9.529s 2024-11-02 10:01 Guest1570 #6532 4.916,4.613
US N 9.529s 2025-06-14 21:06 Guest5544 #6533 4.683,4.846
US N 9.529s 2025-10-14 15:16 skibs #6534 4.833,4.696
US N 9.529s 2025-12-31 17:42 Guest4196 #6535 4.783,4.746
NL N 9.529s 2026-01-03 21:23 Guest3786 #6536 4.916,4.613
PL N 9.529s 2026-01-30 19:09 27franek #6537 4.833,4.696
CZ N 9.529s 2026-04-02 17:54 Darbotopa #6538 4.800,4.729
FR N 9.530s 2023-02-05 15:48 MeaowV1 #6539 4.850,4.680
US N 9.530s 2023-02-14 12:08 Toshik0 #6540 4.883,4.647
PL N 9.530s 2023-02-21 11:23 strupekk #6541 4.900,4.630
GB N 9.530s 2023-02-25 19:08 Skyla #6542 4.933,4.597
AU Y 9.530s 2023-03-14 10:26 tilefile #6543 4.866,4.664
NL N 9.530s 2023-04-21 14:09 TIMMAHHH #6544 4.650,4.880
US N 9.530s 2024-09-28 15:36 LukeyPukey #6545 4.900,4.630
FR N 9.530s 2024-10-09 09:05 Tyhbz #6546 4.816,4.714
US N 9.530s 2024-11-02 03:38 GOAT FISHY #6547 4.850,4.680
US N 9.543s 2023-05-10 23:35 The bob #6548 4.850,4.693
GB N 9.544s 2023-02-15 01:18 MissOJ #6549 4.916,4.628
US N 9.544s 2023-02-16 20:35 Guest7931 #6550 4.733,4.811
US N 9.544s 2023-02-24 21:20 Tracy #6551 4.833,4.711
LT Y 9.544s 2023-03-04 18:20 Cherryxbearltu #6552 4.950,4.594
DK Y 9.544s 2023-04-06 09:44 AkselErCool #6553 4.816,4.728
US N 9.544s 2023-09-16 20:34 Loomi0228 #6554 4.883,4.661
DE N 9.544s 2023-10-24 16:38 Eleven #6555 4.783,4.761
FR N 9.544s 2023-12-25 11:27 Chocomoul #6556 4.800,4.744
US N 9.544s 2024-05-09 19:40 a̶v̶o̶y̶d̶ ❤️ #6557 4.850,4.694
FR N 9.544s 2024-05-27 06:10 mitri2008 #6558 4.950,4.594
SE N 9.544s 2025-04-06 14:02 tha io #6559 4.733,4.811
CO N 9.544s 2025-12-26 12:34 ─╤╦︻Se@BoRg¡0_2.0⌐╦╦═─ #6560 4.866,4.678
JP Y 9.544s 2026-05-03 12:51 Yamane1068 #6561 5.016,4.528
US N 9.545s 2023-02-08 14:16 Braygles #6562 4.866,4.679
NL N 9.545s 2023-02-10 20:20 PoweredByLevi #6563 4.850,4.695
NL N 9.545s 2023-02-12 13:18 chrisyboylol #6564 4.783,4.762
US Y 9.545s 2023-02-15 13:53 sv_octle #6565 4.766,4.779
SE N 9.545s 2023-02-17 16:56 Easy #6566 4.716,4.829
SK N 9.545s 2023-02-18 16:51 petulik13 #6567 4.783,4.762
US N 9.545s 2023-02-21 18:58 Thehugecock #6568 4.766,4.779
NL N 9.545s 2023-02-26 12:22 DroopyRanger371 #6569 5.050,4.495
IL N 9.545s 2023-03-02 09:33 toster senpai #6570 4.800,4.745
AU N 9.545s 2023-03-13 02:20 Fe4rless #6571 4.916,4.629
AU N 9.545s 2023-03-17 23:23 AidenGG #6572 4.916,4.629
CA Y 9.545s 2023-03-18 14:09 Mist #6573 4.800,4.745
US N 9.545s 2023-03-21 14:56 Cyaneon #6574 4.833,4.712
BA N 9.545s 2023-03-29 11:17 BlazeVC5 #6575 4.733,4.812
ES N 9.545s 2023-04-06 17:58 FlamboyantDemon #6576 4.800,4.745
NZ N 9.545s 2023-04-07 04:59 Mick muncher #6577 4.916,4.629
SE N 9.545s 2023-04-30 14:20 2fast4u #6578 4.816,4.729
RO N 9.545s 2023-05-01 00:24 fabi tris #6579 4.916,4.629
US N 9.545s 2023-06-08 21:46 BraxtonC07 #6580 4.816,4.729
DE N 9.545s 2023-06-29 20:24 LR08btw #6581 4.833,4.712
IE N 9.545s 2023-09-26 00:14 imcompotentfool #6582 4.800,4.745
RU N 9.545s 2024-09-10 09:40 Absolut #6583 4.800,4.745
FR N 9.545s 2024-09-22 16:07 Kotta #6584 4.833,4.712
US N 9.545s 2024-11-15 17:54 Guest7037 #6585 4.766,4.779
FR N 9.545s 2026-02-11 11:39 hugo #6586 4.966,4.579
TW Y 9.545s 2026-03-26 22:02 CRapper #6587 5.016,4.529
NL N 9.546s 2023-02-27 13:26 Roosieroos #6588 4.816,4.730
GB N 9.546s 2023-04-17 19:59 Guest1515 #6589 4.933,4.613
GB Y 9.546s 2023-04-20 19:46 Toast #6590 4.833,4.713
CA N 9.546s 2024-02-01 23:52 GuidedCloth1498 #6591 4.783,4.763
ES N 9.546s 2024-02-18 12:47 Emiryn #6592 4.850,4.696
BE N 9.546s 2024-06-13 16:50 Superwout #6593 4.716,4.830
US N 9.546s 2024-09-28 18:29 Comic #6594 4.816,4.730
AT N 9.546s 2025-06-13 07:21 StrangestWardrobe88 #6595 4.966,4.580
FR N 9.546s 2026-04-21 18:41 Mathsoups #6596 4.833,4.713
US N 9.547s 2023-02-06 13:00 Ex0Haxssss #6597 4.750,4.797
DK N 9.547s 2023-02-14 21:33 Willbassen #6598 4.816,4.731
PL N 9.547s 2023-02-22 10:25 Guest1986 #6599 4.833,4.714
US Y 9.547s 2023-03-03 02:44 C0M1C_ #6600 4.733,4.814
NL N 9.547s 2023-03-17 18:09 Pluisje #6601 4.916,4.631
GB Y 9.547s 2023-04-17 10:07 Wispnik #6602 4.850,4.697
US N 9.547s 2023-05-21 01:35 BIGHEAD #6603 4.800,4.747
NO N 9.547s 2024-10-27 13:38 iLikeBigBalls #6604 4.833,4.714
PK N 9.547s 2026-01-02 17:39 walter black #6605 4.783,4.764
CA N 9.560s 2023-02-05 19:29 Canmoregamer #6606 4.950,4.610
RU N 9.560s 2023-02-15 06:47 kakashonok #6607 4.716,4.844
FI Y 9.560s 2023-02-21 20:08 Miza1835 #6608 4.816,4.744
DE N 9.560s 2023-02-22 10:43 xaax #6609 5.000,4.560
US N 9.560s 2023-03-21 23:53 Exo_Rise #6610 4.833,4.727
DE Y 9.560s 2023-04-07 20:54 MetalAttribute2 #6611 4.850,4.710
GB N 9.560s 2023-08-14 15:46 Guest5484 #6612 4.966,4.594
DE N 9.560s 2025-03-18 15:07 Magik #6613 4.800,4.760
DE N 9.560s 2026-01-25 14:39 S3M8Nシ #6614 4.900,4.660
US N 9.561s 2023-02-13 01:15 DrRooo #6615 4.783,4.778
AU N 9.561s 2023-02-28 06:45 Cracked #6616 4.983,4.578
IL N 9.561s 2023-03-05 07:16 Jogan #6617 4.850,4.711
US Y 9.561s 2023-03-19 04:50 Moyo #6618 4.750,4.811
GB N 9.561s 2023-04-19 15:16 Deez nuts #6619 4.883,4.678
BE N 9.561s 2023-10-13 19:40 woutvdh #6620 4.916,4.645
BE N 9.561s 2024-07-13 19:34 xdv0920 #6621 4.866,4.695
US Y 9.561s 2024-08-21 13:15 Alula #6622 4.866,4.695
NO N 9.561s 2025-12-14 00:07 PUNDURPUUSLIS #6623 4.866,4.695
IL N 9.561s 2026-03-16 09:08 Eden and Daniel #6624 4.916,4.645
LV N 9.562s 2023-02-07 17:56 ItzNikes #6625 4.933,4.629
US N 9.562s 2023-02-10 12:35 Joedad #6626 4.916,4.646
NL N 9.562s 2023-02-13 10:10 Pjoter63 #6627 4.750,4.812
US N 9.562s 2023-02-17 01:36 JediMikey #6628 4.650,4.912
NO N 9.562s 2023-02-19 18:22 Andy #6629 5.116,4.446
US N 9.562s 2023-02-23 15:43 exo_Trezy #6630 4.766,4.796
GB N 9.562s 2023-02-25 10:54 Sparkson619 #6631 4.750,4.812
SE N 9.562s 2023-02-26 10:51 SWEDEN #6632 4.800,4.762
NO N 9.562s 2023-02-26 10:53 TheOneWhoKnocks #6633 4.850,4.712
BE N 9.562s 2023-02-28 16:32 K1NG #6634 4.650,4.912
SE Y 9.562s 2023-03-19 22:45 Kgrenswe #6635 4.733,4.829
DE N 9.562s 2023-03-24 06:02 Guest7922 #6636 4.766,4.796
AU N 9.562s 2023-04-12 03:31 ExoRy #6637 4.766,4.796
AU N 9.562s 2023-04-14 11:51 Idek6969420 #6638 4.916,4.646
GB Y 9.562s 2023-04-17 14:59 Callumthe1st #6639 4.866,4.696
NL N 9.562s 2023-04-25 10:26 Jurriaan_DH #6640 4.750,4.812
CZ N 9.562s 2024-04-18 10:54 🤜OgYardel🤛 #6641 4.866,4.696
GB N 9.562s 2024-10-10 07:04 Rollington #6642 4.766,4.796
US N 9.562s 2024-10-18 19:44 LacrosseLegend53 #6643 4.750,4.812
NL N 9.562s 2025-02-07 08:03 Thijs #6644 4.716,4.846
US N 9.562s 2025-03-15 14:40 Guest5999 #6645 4.766,4.796
CA N 9.562s 2025-09-25 21:22 Guest6935 #6646 4.900,4.662
RS N 9.562s 2026-01-09 14:59 Peyפ #6647 4.983,4.579
US N 9.562s 2026-04-02 23:26 SKZ #6648 4.800,4.762
DE N 9.563s 2023-02-12 19:27 Guest4827 #6649 4.633,4.930
IL N 9.563s 2023-02-21 08:20 my name is alon #6650 4.816,4.747
DK N 9.563s 2023-02-28 08:47 Seb #6651 4.833,4.730
NL N 9.563s 2023-03-09 13:45 Mr_Great #6652 4.850,4.713
FI N 9.563s 2023-03-13 10:04 BehavioralGem29 #6653 4.750,4.813
NL Y 9.563s 2023-04-05 06:26 Frikandelbroodj #6654 4.866,4.697
US N 9.563s 2023-12-30 03:08 Guest8583 #6655 4.900,4.663
DE N 9.563s 2024-12-24 19:41 blaze #6656 5.133,4.430
TW N 9.563s 2026-01-20 08:39 😶😶UnknownAnonymou😶😶 #6657 4.816,4.747
US N 9.564s 2023-02-11 03:50 Juliodhushuhu #6658 4.950,4.614
NL Y 9.577s 2023-02-13 16:01 jenspik #6659 4.633,4.944
CH N 9.577s 2023-02-16 10:10 baconator #6660 4.850,4.727
US N 9.577s 2023-02-18 22:37 Chezs #6661 4.833,4.744
FR N 9.577s 2023-02-26 09:51 Oldskin555 #6662 4.766,4.811
US N 9.577s 2023-03-01 19:07 Precise #6663 4.866,4.711
NL Y 9.577s 2023-03-05 20:19 Guest5879 #6664 4.716,4.861
NL Y 9.577s 2023-03-13 12:15 jamjam080100 #6665 4.833,4.744
AU N 9.577s 2023-03-22 08:47 Bandelloni33 #6666 4.883,4.694
NL Y 9.577s 2023-03-24 08:53 Derkveder #6667 4.983,4.594
DE N 9.577s 2023-04-06 12:23 3ll3n #6668 4.816,4.761
DE N 9.577s 2023-04-06 17:08 fabiighg #6669 4.916,4.661
TH N 9.577s 2023-11-04 03:08 PirateOwl28969 #6670 4.900,4.677
US N 9.577s 2024-07-18 17:00 Aqua #6671 4.900,4.677
GB N 9.578s 2023-02-13 08:13 YeetAlexBTW #6672 4.800,4.778
NL Y 9.578s 2023-02-22 09:28 djo423 #6673 4.916,4.662
BE N 9.578s 2023-03-06 12:42 bvc #6674 4.800,4.778
NL N 9.578s 2024-01-15 13:09 Gerdo14s #6675 4.900,4.678
EG N 9.578s 2025-05-18 15:14 Mohamed #6676 5.000,4.578
US N 9.579s 2023-02-05 15:53 Toasty #6677 4.933,4.646
US N 9.579s 2023-02-14 05:53 001 #6678 4.950,4.629
PL N 9.579s 2023-02-15 06:47 elever #6679 4.950,4.629
DE N 9.579s 2023-02-15 11:59 zaez_Jon #6680 4.950,4.629
DE N 9.579s 2023-02-16 17:44 Ayoo #6681 4.766,4.813
BE N 9.579s 2023-02-25 19:48 NuclearMonkey69 #6682 4.900,4.679
US N 9.579s 2023-03-01 21:23 Maple- #6683 4.933,4.646
US N 9.579s 2023-03-05 21:40 uri #6684 4.866,4.713
FR N 9.579s 2023-03-11 13:48 kuerpy #6685 4.966,4.613
SK N 9.579s 2023-03-12 08:34 Hroznoo #6686 4.733,4.846
NO N 9.579s 2023-03-14 13:14 MokiBOiii507 #6687 4.850,4.729
RU Y 9.579s 2023-03-15 11:16 moore #6688 4.816,4.763
US N 9.579s 2023-03-15 11:54 Guest9641 #6689 4.883,4.696
IL N 9.579s 2023-03-17 05:36 T3slaOfficial #6690 4.866,4.713
PL N 9.579s 2023-03-17 11:52 survczyk #6691 4.700,4.879
IL Y 9.579s 2023-03-17 18:32 Cripper #6692 4.833,4.746
SI N 9.579s 2023-03-21 07:59 011z #6693 4.733,4.846
DE N 9.579s 2023-03-23 21:00 Bibble #6694 4.850,4.729
NZ N 9.579s 2023-03-23 23:50 SidTheGodXddddd #6695 4.900,4.679
CA N 9.579s 2023-03-25 05:47 Dogez4lifez #6696 4.866,4.713
GR N 9.579s 2023-04-09 13:36 Guest6445 #6697 4.800,4.779
NL N 9.579s 2023-04-23 20:01 Guest7786 #6698 4.850,4.729
BE N 9.579s 2023-04-28 16:35 aaa #6699 4.850,4.729
AF N 9.579s 2023-05-02 15:31 Lozar #6700 4.783,4.796
PL N 9.579s 2023-05-16 16:31 Arbuzowy #6701 4.783,4.796
FI N 9.579s 2023-09-08 06:41 Thontuzi #6702 4.950,4.629
SE N 9.579s 2023-10-14 11:32 Burrisen #6703 4.716,4.863
FI N 9.579s 2023-10-27 05:29 Bullet #6704 5.000,4.579
SE N 9.579s 2023-11-15 22:16 elviramw #6705 4.883,4.696
TN N 9.579s 2023-12-04 08:27 do3do333 #6706 4.866,4.713
CA N 9.579s 2024-01-08 22:29 doomfai #6707 4.700,4.879
FR N 9.579s 2024-02-14 16:25 Zed #6708 4.966,4.613
NL N 9.579s 2024-08-14 06:45 🍯💮FLYING_BEE🌼🐝🪽 #6709 4.616,4.963
NL N 9.579s 2024-11-01 23:11 Snowgoat #6710 4.750,4.829
PT N 9.579s 2024-12-02 14:38 Justafemale_man #6711 4.900,4.679
KR N 9.579s 2025-04-14 10:01 ㅈㅇㅈ #6712 4.816,4.763
LB Y 9.579s 2026-03-05 17:48 malik #6713 4.816,4.763
TR N 9.580s 2023-02-05 05:43 Kemal #6714 4.900,4.680
US N 9.580s 2023-02-06 00:08 Guest3142 #6715 4.983,4.597
GB N 9.580s 2023-02-14 08:17 L4TR0C #6716 4.933,4.647
FI N 9.580s 2023-02-25 13:15 SullenImitation #6717 4.816,4.764
AU N 9.580s 2023-03-17 05:45 TheChamp #6718 5.050,4.530
DE N 9.580s 2024-07-11 09:27 TollaX #6719 4.966,4.614
NL N 9.580s 2026-01-19 13:48 NBN\/\/777 #6720 4.966,4.614
RU N 9.580s 2026-02-11 19:21 urmama #6721 4.900,4.680
FR N 9.580s 2026-03-09 04:07 Saleh 🃏 #6722 5.116,4.464
BR N 9.593s 2025-03-29 01:44 xicão #6723 4.833,4.760
US N 9.593s 2026-05-09 00:11 CR7 #6724 4.883,4.710
GB N 9.594s 2023-02-05 10:25 oxzq19 #6725 4.616,4.978
DE N 9.594s 2023-02-05 18:35 green_benx #6726 4.783,4.811
ID N 9.594s 2023-02-05 23:13 Sunny #6727 4.833,4.761
CZ N 9.594s 2023-02-18 10:32 czech_boy_15 #6728 4.883,4.711
AU N 9.594s 2023-03-11 20:25 Suiiiii #6729 4.633,4.961
GR Y 9.594s 2023-03-17 08:42 CEOTrayle #6730 4.916,4.678
FI N 9.594s 2023-05-03 16:58 Ln1 #6731 4.916,4.678
FR Y 9.594s 2024-02-08 12:01 yayapizza #6732 4.733,4.861
US N 9.594s 2024-07-04 15:14 Guest3927 #6733 4.866,4.728
DE N 9.594s 2024-08-18 14:28 Brot #6734 4.850,4.744
GB N 9.594s 2025-04-13 10:54 Enigma. #6735 4.750,4.844
LY N 9.594s 2026-02-09 16:55 slumberkei #6736 4.783,4.811
EE N 9.595s 2023-02-06 10:17 something1132 #6737 4.900,4.695
NL N 9.595s 2023-02-12 19:23 Mare #6738 4.866,4.729
BE N 9.595s 2023-02-13 05:46 Guest6506 #6739 4.900,4.695
US Y 9.595s 2023-02-14 01:52 eleven #6740 4.966,4.629
US N 9.595s 2023-02-15 21:23 MadTurtle #6741 4.900,4.695
CA N 9.595s 2023-02-16 01:15 Poopoo #6742 4.766,4.829
CH N 9.595s 2023-02-16 09:41 blackbird #6743 4.866,4.729
KZ N 9.595s 2023-02-16 11:40 Guest3625 #6744 5.033,4.562
NL N 9.595s 2023-02-19 13:53 Toon #6745 4.933,4.662
NL Y 9.595s 2023-02-19 17:23 Divine #6746 4.816,4.779
US N 9.595s 2023-02-24 14:06 Nalgon_123 #6747 4.800,4.795
US N 9.595s 2023-02-24 21:44 Blaze #6748 4.950,4.645
US N 9.595s 2023-02-25 20:07 MasterChief #6749 4.916,4.679
US N 9.595s 2023-02-26 18:25 ThatBSgamer #6750 4.850,4.745
GB N 9.595s 2023-03-01 18:01 TT_m1n1spesh #6751 4.800,4.795
US Y 9.595s 2023-03-10 14:04 Jokez #6752 4.850,4.745
TW N 9.595s 2023-03-16 12:38 ModestGnome21 #6753 4.916,4.679
RU N 9.595s 2023-03-22 09:08 diman4ig #6754 4.833,4.762
HR N 9.595s 2023-03-25 06:55 Bor345na #6755 4.866,4.729
US N 9.595s 2023-03-27 13:19 Guest5972 #6756 4.883,4.712
CL N 9.595s 2023-04-23 19:09 Cuadra #6757 5.000,4.595
ES N 9.595s 2023-04-29 11:30 Sunny #6758 4.966,4.629
US N 9.595s 2023-09-24 18:44 Yiyi #6759 4.800,4.795
US N 9.595s 2024-07-13 00:53 Charmander #6760 4.850,4.745
PL N 9.595s 2025-11-26 10:11 popodrugi #6761 4.983,4.612
GB N 9.596s 2023-02-05 20:29 Pineapple #6762 4.883,4.713
DK N 9.596s 2023-02-14 16:01 NoaUdenH #6763 5.016,4.580
NO N 9.596s 2023-02-17 06:42 Larsemann #6764 4.866,4.730
GR N 9.596s 2023-02-25 23:17 PanosMos004 #6765 4.933,4.663
ID N 9.596s 2023-03-02 09:05 APALOMZ #6766 5.033,4.563
CA Y 9.596s 2023-03-10 05:10 Flix1717 #6767 4.933,4.663
GQ N 9.596s 2023-03-20 09:05 EnchantedWrecke #6768 4.766,4.830
BG N 9.596s 2023-03-28 18:57 pussy hunter #6769 4.966,4.630
HR Y 9.596s 2023-04-24 09:43 MuZa0 #6770 4.833,4.763
SE N 9.596s 2023-09-05 11:30 Ej10 sweden #6771 4.850,4.746
US N 9.596s 2024-07-17 08:28 Kai #6772 4.783,4.813
CA N 9.596s 2024-09-09 21:58 rando #6773 4.983,4.613
AU N 9.596s 2024-09-21 00:13 Amethyst #6774 4.933,4.663
BE N 9.596s 2025-06-14 11:03 lomme #6775 5.016,4.580
AL N 9.597s 2023-03-18 09:53 elekezem123 #6776 4.866,4.731
TR N 9.597s 2023-03-22 14:41 Kaanthenoob #6777 5.016,4.581
RO N 9.597s 2023-03-27 11:43 DenisTYC #6778 4.783,4.814
CO N 9.597s 2023-06-08 00:02 deleted user #6779 4.900,4.697
RU N 9.597s 2024-08-16 20:05 X_TŪŘBØ_X #6780 4.900,4.697
IN N 9.597s 2025-02-07 17:39 Devansh #6781 4.950,4.647
US N 9.597s 2025-02-25 00:38 FakeKoala #6782 4.983,4.614
GE N 9.597s 2025-02-27 10:22 Guest5835 #6783 4.816,4.781
CA N 9.610s 2023-02-14 06:09 AvexxBTW #6784 4.983,4.627
CR N 9.610s 2023-02-23 17:19 WhimsicalGremli #6785 4.850,4.760
BA N 9.610s 2023-02-27 11:41 Nina #6786 4.883,4.727
IL Y 9.610s 2023-03-24 10:05 yuvalon #6787 4.733,4.877
US N 9.610s 2023-08-29 00:48 JimmyO9 #6788 4.866,4.744
FI N 9.610s 2023-10-20 20:49 Tyyppiukko #6789 4.983,4.627
SE Y 9.610s 2024-08-28 10:25 Caspergo2011 #6790 4.983,4.627
JP N 9.610s 2026-05-06 09:30 omochiBS #6791 4.866,4.744
IN N 9.611s 2023-02-06 06:19 yashismyman #6792 4.850,4.761
NL N 9.611s 2023-02-12 10:08 tomwashere #6793 4.833,4.778
CZ N 9.611s 2023-03-23 10:05 JustTomas_ #6794 4.766,4.845
CA N 9.611s 2023-04-03 21:59 eleven #6795 5.000,4.611
GB N 9.611s 2023-06-24 15:25 Tobdel_1234 #6796 4.950,4.661
US N 9.611s 2023-07-06 14:40 Jacobisnotsus #6797 4.883,4.728
US N 9.611s 2024-11-24 22:32 Worldx #6798 5.000,4.611
AT N 9.611s 2024-12-18 13:02 Amelie #6799 4.933,4.678
EE N 9.611s 2025-05-27 16:58 sitanikerdis #6800 4.850,4.761
US N 9.611s 2025-07-15 23:40 Leap #6801 4.850,4.761
NL N 9.611s 2026-03-04 13:57 skitle #6802 4.916,4.695
GB N 9.612s 2023-02-06 16:26 penguiny #6803 4.916,4.696
US N 9.612s 2023-02-06 17:26 YoshiBigBum #6804 4.800,4.812
RO N 9.612s 2023-02-06 18:16 Bthegod #6805 4.900,4.712
RO N 9.612s 2023-02-07 17:46 ZQY OMGgs #6806 4.783,4.829
AU N 9.612s 2023-02-09 09:35 Guest3965 #6807 4.883,4.729
US N 9.612s 2023-02-11 16:14 Hot-Daddy69 #6808 4.833,4.779
CA N 9.612s 2023-02-12 18:38 17 #6809 4.816,4.796
HR N 9.612s 2023-02-13 14:16 tomicaaaaaa #6810 4.766,4.846
BG Y 9.612s 2023-02-14 07:35 Guest6290 #6811 4.916,4.696
NL N 9.612s 2023-02-14 15:35 jessekaas #6812 4.850,4.762
US N 9.612s 2023-02-14 21:43 Shaxxy #6813 4.833,4.779
BE N 9.612s 2023-02-15 13:11 GeographicJoker #6814 4.650,4.962
RU Y 9.612s 2023-02-16 03:34 Glebuster #6815 4.883,4.729
NL N 9.612s 2023-02-18 13:16 PCT Flxs #6816 4.766,4.846
BE N 9.612s 2023-02-19 06:07 Guest6337 #6817 5.033,4.579
VN N 9.612s 2023-02-19 08:45 OrchestralScarf #6818 4.766,4.846
FR N 9.612s 2023-02-25 15:58 enzo_mv #6819 4.866,4.746
NL Y 9.612s 2023-02-26 19:25 Xinoq #6820 4.816,4.796
NL N 9.612s 2023-03-01 19:46 Ingmar #6821 4.700,4.912
CZ N 9.612s 2023-03-22 12:05 Flamey #6822 4.950,4.662
RS N 9.612s 2023-03-22 17:56 Tutnemfruti167 #6823 4.883,4.729
US N 9.612s 2023-03-29 01:28 Mr_Mason #6824 4.950,4.662
US Y 9.612s 2023-04-09 19:54 Guest1631 #6825 4.883,4.729
LU N 9.612s 2023-05-04 11:56 FlyingHercules2 #6826 4.766,4.846
AU N 9.612s 2023-05-30 06:34 Ducky #6827 4.750,4.862
DK N 9.612s 2023-09-12 19:01 Unknown #6828 4.633,4.979
GB N 9.612s 2024-08-18 17:17 FauxExorcist194 #6829 4.766,4.846
PL N 9.612s 2024-08-24 14:30 Nikola1220m #6830 4.816,4.796
DE N 9.612s 2024-08-31 14:11 CynicalCompass5 #6831 4.866,4.746
PL N 9.612s 2024-11-22 10:52 Guest9084 #6832 4.783,4.829
LV N 9.612s 2025-02-27 16:22 Kiborgs12345 #6833 4.783,4.829
RO N 9.612s 2025-02-27 18:40 eleven #6834 4.750,4.862
IL N 9.612s 2025-06-26 13:36 gal4ever #6835 4.766,4.846
RS N 9.612s 2025-10-04 21:37 comilii #6836 4.833,4.779
DE N 9.612s 2026-02-16 10:37 CFI0 #6837 4.850,4.762
NL N 9.612s 2026-03-18 11:21 <3 маму Даниса #6838 5.016,4.596
US N 9.613s 2023-02-07 00:11 deleted user #6839 4.816,4.797
NL N 9.613s 2023-02-08 19:53 LudoGG #6840 5.066,4.547
IE N 9.613s 2023-02-19 14:19 dpc123 #6841 4.766,4.847
GR N 9.613s 2023-03-04 07:53 Alex #6842 4.966,4.647
FR Y 9.613s 2023-05-02 19:59 OrneryGangsta67 #6843 4.783,4.830
FI N 9.613s 2023-09-16 15:43 Jemppu3987 #6844 4.983,4.630
US N 9.613s 2024-01-25 20:08 NJCyberBird #6845 4.933,4.680
DK N 9.613s 2024-03-21 17:19 Villads #6846 4.883,4.730
BE N 9.613s 2024-09-14 13:54 AYDEEEENNN #6847 4.833,4.780
US N 9.613s 2024-11-14 13:50 Qwerty117 #6848 4.716,4.897
SE N 9.614s 2023-04-15 15:26 Guest3039 #6849 5.016,4.598
US N 9.627s 2023-02-05 02:03 Poop #6850 4.833,4.794
US N 9.627s 2023-02-08 23:37 RigidPestilence #6851 4.583,5.044
DE N 9.627s 2023-02-12 17:20 Mumrange99 #6852 4.900,4.727
NL N 9.627s 2023-02-12 20:04 MentallyDead #6853 4.866,4.761
DE N 9.627s 2023-02-18 17:30 ExoRacer #6854 4.833,4.794
DE N 9.627s 2023-02-21 00:31 MangoToGo #6855 4.783,4.844
PL N 9.627s 2023-02-23 16:11 ruchaczZchin #6856 4.683,4.944
PL N 9.627s 2023-03-01 10:13 Prebi_123 #6857 4.983,4.644
US N 9.627s 2023-03-12 15:39 Your Mom #6858 4.816,4.811
GB Y 9.627s 2023-04-07 17:45 magicmadness #6859 4.800,4.827
SE N 9.627s 2023-08-13 16:09 Guest6252 #6860 4.800,4.827
PL N 9.627s 2023-08-25 09:01 stelmi_2010 #6861 4.983,4.644
RU N 9.627s 2024-07-21 00:16 kostyandontezka #6862 4.883,4.744
AX N 9.627s 2024-11-18 21:33 llemonade #6863 4.866,4.761
CA N 9.627s 2025-01-24 22:16 Neo4 #6864 4.800,4.827
RO N 9.627s 2026-01-26 11:57 Drx #6865 4.900,4.727
CO N 9.628s 2023-02-05 16:44 Vic176f #6866 4.850,4.778
US N 9.628s 2023-02-06 15:04 Denied #6867 4.933,4.695
US N 9.628s 2023-02-13 22:35 KingJay_17 #6868 4.866,4.762
DK Y 9.628s 2023-02-17 12:22 Rango #6869 4.883,4.745
NL N 9.628s 2023-08-25 07:45 𝐊𝐫𝐨𝐞𝐳𝐞𝐝𝐞𝐫 #6870 4.800,4.828
BE N 9.629s 2023-02-06 07:07 zizi #6871 4.916,4.713
FI N 9.629s 2023-02-06 08:28 elkkuboyzz #6872 5.050,4.579
CA N 9.629s 2023-02-06 09:15 xltra #6873 4.933,4.696
US N 9.629s 2023-02-06 12:20 Ben #6874 4.900,4.729
HR N 9.629s 2023-02-06 17:47 LovroD77359 #6875 4.850,4.779
ES N 9.629s 2023-02-08 16:17 DroningStigma33 #6876 4.900,4.729
ES N 9.629s 2023-02-10 18:48 Kacpersbigwilly #6877 4.800,4.829
CH N 9.629s 2023-02-11 08:09 kangarooguyx2 #6878 4.833,4.796
SE N 9.629s 2023-02-12 11:26 Banana #6879 4.733,4.896
BE N 9.629s 2023-02-12 21:40 QuickChangeling #6880 4.850,4.779
FR N 9.629s 2023-02-15 18:01 le gros rat #6881 4.916,4.713
DE Y 9.629s 2023-02-17 19:57 MinYoongi #6882 4.866,4.763
NL N 9.629s 2023-02-20 08:55 jaribar #6883 4.883,4.746
TT Y 9.629s 2023-02-21 22:33 Viqen #6884 4.950,4.679
IL N 9.629s 2023-03-04 09:48 A_s #6885 4.783,4.846
US N 9.629s 2023-03-20 13:38 UnseemlyString #6886 4.633,4.996
AT N 9.629s 2023-03-23 22:54 teosdeos #6887 4.866,4.763
US N 9.629s 2023-03-24 20:30 BigMonkeyLover #6888 4.716,4.913
CZ N 9.629s 2023-04-11 09:49 DJdogeofficial2 #6889 4.716,4.913
LB N 9.629s 2023-04-11 10:04 brbfr #6890 4.783,4.846
CA N 9.629s 2023-04-27 19:54 C21 Brody #6891 4.900,4.729
CZ N 9.629s 2023-05-05 16:56 jujanec #6892 4.766,4.863
US N 9.629s 2023-05-19 23:51 gape horn #6893 4.916,4.713
SI N 9.629s 2023-12-11 07:52 samojster #6894 4.916,4.713
CA Y 9.629s 2024-08-16 03:38 Dragon_Of_Okotoks #6895 4.900,4.729
NL N 9.629s 2024-11-06 12:44 Snowgoat2 #6896 4.866,4.763
US N 9.629s 2024-11-06 17:07 EpicIye #6897 4.766,4.863
NL N 9.629s 2025-01-01 20:21 timo #6898 5.000,4.629
DE N 9.629s 2025-01-10 15:57 Guest2463 #6899 4.783,4.846
HK N 9.629s 2025-08-04 08:08 fanfan #6900 4.716,4.913
CA N 9.629s 2026-01-23 18:04 SnaPP #6901 4.883,4.746
JP N 9.629s 2026-03-10 14:33 ChickinTinga #6902 4.900,4.729
US N 9.630s 2023-02-15 03:35 Hobgoblins #6903 4.750,4.880
GB N 9.630s 2023-02-23 07:44 Michelle #6904 4.816,4.814
DE Y 9.630s 2023-02-25 17:27 Faultier37 #6905 4.816,4.814
GR N 9.630s 2023-03-06 05:47 Guest5142 #6906 4.816,4.814
DE N 9.630s 2023-04-25 12:04 deleted user #6907 4.833,4.797
FI N 9.630s 2023-09-11 11:45 Pika #6908 4.966,4.664
SE N 9.630s 2025-01-02 12:52 PrimalKahuna15 #6909 4.900,4.730
US N 9.630s 2025-02-23 03:39 tiggy #6910 4.983,4.647
CA N 9.631s 2023-03-06 22:15 Guest5850 #6911 4.900,4.731
US N 9.631s 2023-05-04 19:10 bubble #6912 4.900,4.731
US N 9.644s 2023-02-14 03:21 ViperJf99 #6913 4.900,4.744
NO N 9.644s 2023-02-19 13:48 Padelball #6914 4.950,4.694
US N 9.644s 2023-02-19 21:50 au albert #6915 4.766,4.878
US N 9.644s 2023-04-22 20:53 RuminatingDrake #6916 4.966,4.678
FR N 9.644s 2023-04-30 07:27 Dryx #6917 4.850,4.794
GR N 9.644s 2023-05-03 07:36 GgamingREAL #6918 5.000,4.644
BR N 9.644s 2023-07-21 15:27 elanoevil #6919 4.933,4.711
NL N 9.644s 2023-07-27 10:35 exorain #6920 4.883,4.761
US N 9.644s 2023-09-03 02:50 Guest8928 #6921 4.866,4.778
US N 9.644s 2023-10-13 11:44 Nugg3t #6922 4.750,4.894
CA N 9.644s 2024-06-16 13:47 Keyoto #6923 4.783,4.861
PE N 9.644s 2024-09-15 22:07 axkrell #6924 4.900,4.744
US N 9.644s 2024-12-12 14:03 Kakadoodoopoopo #6925 4.966,4.678
NL N 9.645s 2023-02-05 19:37 sk8jack19 #6926 4.916,4.729
US N 9.645s 2023-02-05 23:14 08CROC #6927 4.850,4.795
GB N 9.645s 2023-02-06 07:38 LuxuriousCycle1 #6928 5.033,4.612
FR N 9.645s 2023-02-06 07:41 Boniour #6929 4.750,4.895
PL N 9.645s 2023-02-09 18:49 przechvj #6930 5.033,4.612
US N 9.645s 2023-02-11 20:24 EXOCURS #6931 4.816,4.829
GB N 9.645s 2023-02-13 12:24 Deez nuts #6932 4.866,4.779
PL N 9.645s 2023-02-14 09:38 TangySecretAgen #6933 4.733,4.912
US N 9.645s 2023-02-14 16:06 Mooch #6934 4.950,4.695
IT Y 9.645s 2023-02-16 20:50 Guest6691 #6935 4.733,4.912
DE N 9.645s 2023-02-16 22:25 IneligibleGroce #6936 4.850,4.795
DE N 9.645s 2023-02-17 14:11 ezp #6937 4.833,4.812
BE N 9.645s 2023-02-17 20:30 kobeloenie #6938 4.850,4.795
BE Y 9.645s 2023-02-19 09:09 MAURITOS #6939 4.900,4.745
NL N 9.645s 2023-02-24 14:18 FakePilot33464 #6940 4.900,4.745
US N 9.645s 2023-03-02 00:39 not a bot #6941 4.783,4.862
MD N 9.645s 2023-03-02 17:22 TrY Dorin #6942 4.950,4.695
FR Y 9.645s 2023-03-08 11:19 Goltroveoff #6943 4.900,4.745
US N 9.645s 2023-03-08 21:53 Guest6870 #6944 4.900,4.745
NL N 9.645s 2023-03-13 21:00 Loebi #6945 4.916,4.729
FR N 9.645s 2023-03-19 20:26 ChargingLynx505 #6946 4.866,4.779
US Y 9.645s 2023-04-01 19:06 Talialilac #6947 4.766,4.879
NL N 9.645s 2023-04-06 20:44 WealthiestHaste #6948 4.933,4.712
AT N 9.645s 2023-04-08 13:37 seaz #6949 4.850,4.795
SI N 9.645s 2023-04-09 08:27 lolpro #6950 4.966,4.679
GB N 9.645s 2023-04-16 14:28 fl0oPy #6951 4.916,4.729
CA N 9.645s 2023-05-20 06:17 Guest3632 #6952 4.866,4.779
IT N 9.645s 2023-06-02 14:03 ElSalvador #6953 4.916,4.729
JP N 9.645s 2025-05-12 13:22 STELLA #6954 4.850,4.795
UA N 9.645s 2025-07-20 17:54 pryncekillaz #6955 4.866,4.779
US N 9.645s 2026-01-12 19:13 yaypoke624x #6956 4.916,4.729
US N 9.645s 2026-01-25 22:13 Guest7715 #6957 4.900,4.745
CA N 9.645s 2026-03-01 03:46 AHHHH #6958 4.816,4.829
CH N 9.645s 2026-03-29 17:39 sleepy Mouse #6959 4.883,4.762
JP N 9.645s 2026-03-29 22:53 skellyt #6960 4.833,4.812
DE N 9.646s 2023-02-06 10:06 L4xsn0r #6961 4.683,4.963
NL N 9.646s 2023-02-17 11:24 BramJeMoeder #6962 4.883,4.763
GB N 9.646s 2023-02-22 15:31 Guest8892 #6963 5.000,4.646
NO Y 9.646s 2023-04-01 12:56 Eggys Friend #6964 4.883,4.763
FI N 9.646s 2024-09-18 16:54 virtamehu #6965 4.950,4.696
GB N 9.646s 2025-01-13 12:05 JLight2315 YT #6966 4.983,4.663
IT N 9.646s 2026-02-08 16:08 Giacomo #6967 4.900,4.746
AT N 9.646s 2026-03-22 19:38 ChillWibe #6968 4.816,4.830
US N 9.647s 2023-02-17 06:08 qwrtzy #6969 4.866,4.781
US N 9.647s 2023-03-04 13:25 Pug_Life #6970 4.866,4.781
ES N 9.647s 2023-03-21 17:40 deim909 #6971 4.883,4.764
PL N 9.647s 2023-08-29 09:02 Zoja #6972 4.866,4.781
RS N 9.647s 2024-08-22 10:15 ko5tao_o #6973 4.783,4.864
CA N 9.647s 2026-01-16 03:11 alistairbegg #6974 4.850,4.797
AU Y 9.660s 2023-03-03 05:21 Guest8000 #6975 4.733,4.927
NL N 9.660s 2023-04-01 18:14 IngeblikAnusvet #6976 4.866,4.794
IL N 9.660s 2023-04-26 15:23 Guest1755 #6977 4.966,4.694
US N 9.660s 2023-04-28 06:49 VexedGem #6978 4.950,4.710
KZ N 9.660s 2024-11-05 08:38 zenny1337 #6979 4.883,4.777
AU N 9.660s 2024-12-10 12:34 veevook #6980 4.816,4.844
NZ N 9.661s 2023-02-06 01:59 Hen8dawg #6981 4.950,4.711
IS N 9.661s 2023-02-06 12:34 WolfyIngolfs #6982 4.966,4.695
RO N 9.661s 2023-02-07 15:39 NotRuben #6983 4.900,4.761
US N 9.661s 2023-02-12 20:25 NTK618 #6984 4.933,4.728
AU N 9.661s 2023-02-13 02:36 Gingey #6985 4.850,4.811
LB N 9.661s 2023-02-28 15:55 Stumbler #6986 4.616,5.045
AE N 9.661s 2023-03-02 20:04 Reded #6987 4.883,4.778
DK N 9.661s 2023-03-12 17:02 Itoo tt #6988 4.833,4.828
AU N 9.661s 2023-04-12 12:38 LincolnKonz #6989 4.916,4.745
US N 9.661s 2023-04-25 20:49 SShimon123 #6990 5.016,4.645
BE N 9.661s 2023-10-01 06:01 MooingBeach30 #6991 4.883,4.778
HU N 9.661s 2024-05-18 12:38 Fyrox #6992 4.866,4.795
GB N 9.661s 2024-06-25 18:41 Guest2610 #6993 4.583,5.078
US N 9.661s 2024-07-15 18:14 Anthony #6994 4.950,4.711
FR N 9.661s 2024-09-23 21:01 RentedPhantasm9 #6995 4.966,4.695
RS N 9.661s 2025-06-07 14:09 SergejKing21 #6996 4.883,4.778
ID N 9.662s 2023-02-05 02:26 FlippantBuyer51 #6997 5.016,4.646
US N 9.662s 2023-02-05 15:43 S504 #6998 4.816,4.846
IT N 9.662s 2023-02-11 11:50 psycho #6999 4.866,4.796
GB N 9.662s 2023-02-11 21:12 SimpleEducator0 #7000 4.933,4.729
Next page